sensor_id;sensor_type;location;lat;lon;timestamp;temperature;humidity
28438;DHT22;15667;52.376;9.708;2022-10-26T00:00:44;11.00;99.90
28438;DHT22;15667;52.376;9.708;2022-10-26T00:03:10;11.20;99.90
28438;DHT22;15667;52.376;9.708;2022-10-26T00:05:36;10.80;99.90
28438;DHT22;15667;52.376;9.708;2022-10-26T00:08:02;10.90;99.90
28438;DHT22;15667;52.376;9.708;2022-10-26T00:10:27;10.80;99.90
28438;DHT22;15667;52.376;9.708;2022-10-26T00:12:53;10.80;99.90
28438;DHT22;15667;52.376;9.708;2022-10-26T00:15:19;10.50;99.90
28438;DHT22;15667;52.376;9.708;2022-10-26T00:17:46;10.70;99.90
28438;DHT22;15667;52.376;9.708;2022-10-26T00:20:11;10.70;99.90
28438;DHT22;15667;52.376;9.708;2022-10-26T00:22:37;10.80;99.90
28438;DHT22;15667;52.376;9.708;2022-10-26T00:25:03;10.60;99.90
28438;DHT22;15667;52.376;9.708;2022-10-26T00:27:29;10.60;99.90
28438;DHT22;15667;52.376;9.708;2022-10-26T00:29:54;10.60;99.90
28438;DHT22;15667;52.376;9.708;2022-10-26T00:32:20;10.60;99.90
28438;DHT22;15667;52.376;9.708;2022-10-26T00:34:45;10.50;99.90
28438;DHT22;15667;52.376;9.708;2022-10-26T00:37:11;10.50;99.90
28438;DHT22;15667;52.376;9.708;2022-10-26T00:39:37;10.90;99.90
28438;DHT22;15667;52.376;9.708;2022-10-26T00:42:03;10.50;99.90
28438;DHT22;15667;52.376;9.708;2022-10-26T00:47:13;10.50;99.90
28438;DHT22;15667;52.376;9.708;2022-10-26T00:49:40;10.40;99.90
28438;DHT22;15667;52.376;9.708;2022-10-26T00:52:07;10.50;99.90
28438;DHT22;15667;52.376;9.708;2022-10-26T00:54:33;11.10;99.90
28438;DHT22;15667;52.376;9.708;2022-10-26T00:56:59;10.60;99.90
28438;DHT22;15667;52.376;9.708;2022-10-26T00:59:25;11.00;99.90
28438;DHT22;15667;52.376;9.708;2022-10-26T01:01:54;11.20;99.90
28438;DHT22;15667;52.376;9.708;2022-10-26T01:04:20;10.50;99.90
28438;DHT22;15667;52.376;9.708;2022-10-26T01:06:46;10.50;99.90
28438;DHT22;15667;52.376;9.708;2022-10-26T01:09:12;10.40;99.90
28438;DHT22;15667;52.376;9.708;2022-10-26T01:11:38;10.40;99.90
28438;DHT22;15667;52.376;9.708;2022-10-26T01:14:06;10.70;99.90
28438;DHT22;15667;52.376;9.708;2022-10-26T01:27:33;10.30;99.90
28438;DHT22;15667;52.376;9.708;2022-10-26T01:30:32;10.30;99.90
28438;DHT22;15667;52.376;9.708;2022-10-26T01:33:06;10.30;99.90
28438;DHT22;15667;52.376;9.708;2022-10-26T01:40:38;10.30;99.90
28438;DHT22;15667;52.376;9.708;2022-10-26T01:43:07;10.30;99.90
28438;DHT22;15667;52.376;9.708;2022-10-26T01:45:36;10.30;99.90
28438;DHT22;15667;52.376;9.708;2022-10-26T01:48:03;10.30;99.90
28438;DHT22;15667;52.376;9.708;2022-10-26T01:50:30;10.30;99.90
28438;DHT22;15667;52.376;9.708;2022-10-26T01:52:56;10.20;99.90
28438;DHT22;15667;52.376;9.708;2022-10-26T01:55:48;10.30;99.90
28438;DHT22;15667;52.376;9.708;2022-10-26T02:01:03;10.20;99.90
28438;DHT22;15667;52.376;9.708;2022-10-26T02:11:31;10.20;99.90
28438;DHT22;15667;52.376;9.708;2022-10-26T02:14:05;10.30;99.90
28438;DHT22;15667;52.376;9.708;2022-10-26T02:17:26;10.20;99.90
28438;DHT22;15667;52.376;9.708;2022-10-26T02:19:48;10.30;99.90
28438;DHT22;15667;52.376;9.708;2022-10-26T02:22:41;10.20;99.90
28438;DHT22;15667;52.376;9.708;2022-10-26T02:25:10;10.10;99.90
28438;DHT22;15667;52.376;9.708;2022-10-26T02:27:41;10.20;99.90
28438;DHT22;15667;52.376;9.708;2022-10-26T02:30:09;10.20;99.90
28438;DHT22;15667;52.376;9.708;2022-10-26T02:32:37;10.20;99.90
28438;DHT22;15667;52.376;9.708;2022-10-26T02:35:05;10.20;99.90
28438;DHT22;15667;52.376;9.708;2022-10-26T02:37:32;10.20;99.90
28438;DHT22;15667;52.376;9.708;2022-10-26T02:39:59;10.20;99.90
28438;DHT22;15667;52.376;9.708;2022-10-26T02:42:27;10.10;99.90
28438;DHT22;15667;52.376;9.708;2022-10-26T02:45:01;10.10;99.90
28438;DHT22;15667;52.376;9.708;2022-10-26T02:47:27;10.10;99.90
28438;DHT22;15667;52.376;9.708;2022-10-26T02:49:54;10.20;99.90
28438;DHT22;15667;52.376;9.708;2022-10-26T02:55:08;10.20;99.90
28438;DHT22;15667;52.376;9.708;2022-10-26T02:57:37;10.20;99.90
28438;DHT22;15667;52.376;9.708;2022-10-26T03:00:16;10.20;99.90
28438;DHT22;15667;52.376;9.708;2022-10-26T03:02:43;10.30;99.90
28438;DHT22;15667;52.376;9.708;2022-10-26T03:07:46;10.30;99.90
28438;DHT22;15667;52.376;9.708;2022-10-26T03:10:12;10.30;99.90
28438;DHT22;15667;52.376;9.708;2022-10-26T03:12:37;10.50;99.90
28438;DHT22;15667;52.376;9.708;2022-10-26T03:15:04;10.30;99.90
28438;DHT22;15667;52.376;9.708;2022-10-26T03:17:29;10.40;99.90
28438;DHT22;15667;52.376;9.708;2022-10-26T03:19:55;10.50;99.90
28438;DHT22;15667;52.376;9.708;2022-10-26T03:22:21;10.50;99.90
28438;DHT22;15667;52.376;9.708;2022-10-26T03:24:47;10.60;99.90
28438;DHT22;15667;52.376;9.708;2022-10-26T03:27:13;10.50;99.90
28438;DHT22;15667;52.376;9.708;2022-10-26T03:29:39;10.50;99.90
28438;DHT22;15667;52.376;9.708;2022-10-26T03:32:04;10.50;99.90
28438;DHT22;15667;52.376;9.708;2022-10-26T03:34:30;10.50;99.90
28438;DHT22;15667;52.376;9.708;2022-10-26T03:36:56;10.40;99.90
28438;DHT22;15667;52.376;9.708;2022-10-26T03:39:21;10.40;99.90
28438;DHT22;15667;52.376;9.708;2022-10-26T03:41:47;10.40;99.90
28438;DHT22;15667;52.376;9.708;2022-10-26T03:44:12;10.80;99.90
28438;DHT22;15667;52.376;9.708;2022-10-26T03:46:38;10.50;99.90
28438;DHT22;15667;52.376;9.708;2022-10-26T03:49:04;10.40;99.90
28438;DHT22;15667;52.376;9.708;2022-10-26T03:51:30;10.40;99.90
28438;DHT22;15667;52.376;9.708;2022-10-26T03:53:55;10.60;99.90
28438;DHT22;15667;52.376;9.708;2022-10-26T03:56:21;10.30;99.90
28438;DHT22;15667;52.376;9.708;2022-10-26T03:58:47;10.30;99.90
28438;DHT22;15667;52.376;9.708;2022-10-26T04:01:12;10.30;99.90
28438;DHT22;15667;52.376;9.708;2022-10-26T04:03:38;10.40;99.90
28438;DHT22;15667;52.376;9.708;2022-10-26T04:06:04;10.70;99.90
28438;DHT22;15667;52.376;9.708;2022-10-26T04:08:29;10.40;99.90
28438;DHT22;15667;52.376;9.708;2022-10-26T04:10:55;10.50;99.90
28438;DHT22;15667;52.376;9.708;2022-10-26T04:13:21;10.40;99.90
28438;DHT22;15667;52.376;9.708;2022-10-26T04:15:46;10.40;99.90
28438;DHT22;15667;52.376;9.708;2022-10-26T04:18:12;10.50;99.90
28438;DHT22;15667;52.376;9.708;2022-10-26T04:20:38;10.50;99.90
28438;DHT22;15667;52.376;9.708;2022-10-26T04:23:10;10.40;99.90
28438;DHT22;15667;52.376;9.708;2022-10-26T04:25:36;10.40;99.90
28438;DHT22;15667;52.376;9.708;2022-10-26T04:28:03;10.50;99.90
28438;DHT22;15667;52.376;9.708;2022-10-26T04:30:30;10.40;99.90
28438;DHT22;15667;52.376;9.708;2022-10-26T04:32:56;10.40;99.90
28438;DHT22;15667;52.376;9.708;2022-10-26T04:35:22;10.40;99.90
28438;DHT22;15667;52.376;9.708;2022-10-26T04:37:48;10.30;99.90
28438;DHT22;15667;52.376;9.708;2022-10-26T04:40:13;10.20;99.90
28438;DHT22;15667;52.376;9.708;2022-10-26T04:42:46;10.30;99.90
28438;DHT22;15667;52.376;9.708;2022-10-26T04:45:13;10.30;99.90
28438;DHT22;15667;52.376;9.708;2022-10-26T04:47:39;10.20;99.90
28438;DHT22;15667;52.376;9.708;2022-10-26T04:50:06;10.20;99.90
28438;DHT22;15667;52.376;9.708;2022-10-26T04:52:32;10.20;99.90
28438;DHT22;15667;52.376;9.708;2022-10-26T04:54:57;10.20;99.90
28438;DHT22;15667;52.376;9.708;2022-10-26T04:57:23;10.20;99.90
28438;DHT22;15667;52.376;9.708;2022-10-26T04:59:48;10.10;99.90
28438;DHT22;15667;52.376;9.708;2022-10-26T05:02:14;10.20;99.90
28438;DHT22;15667;52.376;9.708;2022-10-26T05:04:40;10.20;99.90
28438;DHT22;15667;52.376;9.708;2022-10-26T05:07:05;10.10;99.90
28438;DHT22;15667;52.376;9.708;2022-10-26T05:09:31;10.20;99.90
28438;DHT22;15667;52.376;9.708;2022-10-26T05:11:56;10.50;99.90
28438;DHT22;15667;52.376;9.708;2022-10-26T05:14:22;10.10;99.90
28438;DHT22;15667;52.376;9.708;2022-10-26T05:16:49;10.40;99.90
28438;DHT22;15667;52.376;9.708;2022-10-26T05:19:15;10.10;99.90
28438;DHT22;15667;52.376;9.708;2022-10-26T05:21:41;10.10;99.90
28438;DHT22;15667;52.376;9.708;2022-10-26T05:24:07;10.10;99.90
28438;DHT22;15667;52.376;9.708;2022-10-26T05:26:33;10.10;99.90
28438;DHT22;15667;52.376;9.708;2022-10-26T05:28:58;10.10;99.90
28438;DHT22;15667;52.376;9.708;2022-10-26T05:31:24;10.00;99.90
28438;DHT22;15667;52.376;9.708;2022-10-26T05:33:50;10.00;99.90
28438;DHT22;15667;52.376;9.708;2022-10-26T05:36:17;10.00;99.90
28438;DHT22;15667;52.376;9.708;2022-10-26T05:38:43;10.10;99.90
28438;DHT22;15667;52.376;9.708;2022-10-26T05:41:09;10.50;99.90
28438;DHT22;15667;52.376;9.708;2022-10-26T05:43:34;10.10;99.90
28438;DHT22;15667;52.376;9.708;2022-10-26T05:46:00;10.10;99.90
28438;DHT22;15667;52.376;9.708;2022-10-26T05:48:26;10.10;99.90
28438;DHT22;15667;52.376;9.708;2022-10-26T05:50:51;10.10;99.90
28438;DHT22;15667;52.376;9.708;2022-10-26T05:53:17;10.20;99.90
28438;DHT22;15667;52.376;9.708;2022-10-26T05:55:43;10.30;99.90
28438;DHT22;15667;52.376;9.708;2022-10-26T05:58:13;10.20;99.90
28438;DHT22;15667;52.376;9.708;2022-10-26T06:06:13;10.40;99.90
28438;DHT22;15667;52.376;9.708;2022-10-26T06:08:39;10.50;99.90
28438;DHT22;15667;52.376;9.708;2022-10-26T06:11:07;10.30;99.90
28438;DHT22;15667;52.376;9.708;2022-10-26T06:13:33;10.30;99.90
28438;DHT22;15667;52.376;9.708;2022-10-26T06:16:21;10.30;99.90
28438;DHT22;15667;52.376;9.708;2022-10-26T06:19:14;10.30;99.90
28438;DHT22;15667;52.376;9.708;2022-10-26T06:30:00;10.20;99.90
28438;DHT22;15667;52.376;9.708;2022-10-26T06:32:26;10.20;99.90
28438;DHT22;15667;52.376;9.708;2022-10-26T06:34:58;10.20;99.90
28438;DHT22;15667;52.376;9.708;2022-10-26T06:37:27;10.30;99.90
28438;DHT22;15667;52.376;9.708;2022-10-26T06:39:54;10.30;99.90
28438;DHT22;15667;52.376;9.708;2022-10-26T06:42:21;10.30;99.90
28438;DHT22;15667;52.376;9.708;2022-10-26T06:44:50;10.30;99.90
28438;DHT22;15667;52.376;9.708;2022-10-26T06:49:57;10.30;99.90
28438;DHT22;15667;52.376;9.708;2022-10-26T06:52:42;10.30;99.90
28438;DHT22;15667;52.376;9.708;2022-10-26T06:55:14;10.30;99.90
28438;DHT22;15667;52.376;9.708;2022-10-26T06:57:42;10.30;99.90
28438;DHT22;15667;52.376;9.708;2022-10-26T07:00:19;10.40;99.90
28438;DHT22;15667;52.376;9.708;2022-10-26T07:02:45;10.40;99.90
28438;DHT22;15667;52.376;9.708;2022-10-26T07:05:11;10.50;99.90
28438;DHT22;15667;52.376;9.708;2022-10-26T07:07:42;10.50;99.90
28438;DHT22;15667;52.376;9.708;2022-10-26T07:10:09;10.60;99.90
28438;DHT22;15667;52.376;9.708;2022-10-26T07:12:35;10.70;99.90
28438;DHT22;15667;52.376;9.708;2022-10-26T07:15:01;10.80;99.90
28438;DHT22;15667;52.376;9.708;2022-10-26T07:17:27;10.80;99.90
28438;DHT22;15667;52.376;9.708;2022-10-26T07:19:56;10.90;99.90
28438;DHT22;15667;52.376;9.708;2022-10-26T07:22:22;11.00;99.90
28438;DHT22;15667;52.376;9.708;2022-10-26T07:24:49;11.00;99.90
28438;DHT22;15667;52.376;9.708;2022-10-26T07:27:16;11.10;99.90
28438;DHT22;15667;52.376;9.708;2022-10-26T07:29:44;11.20;99.90
28438;DHT22;15667;52.376;9.708;2022-10-26T07:32:09;11.30;99.90
28438;DHT22;15667;52.376;9.708;2022-10-26T07:34:36;11.30;99.90
28438;DHT22;15667;52.376;9.708;2022-10-26T07:37:02;11.40;99.90
28438;DHT22;15667;52.376;9.708;2022-10-26T07:39:27;11.80;99.90
28438;DHT22;15667;52.376;9.708;2022-10-26T07:41:57;11.40;99.90
28438;DHT22;15667;52.376;9.708;2022-10-26T07:44:22;11.60;99.90
28438;DHT22;15667;52.376;9.708;2022-10-26T07:46:48;11.70;99.90
28438;DHT22;15667;52.376;9.708;2022-10-26T07:49:13;11.70;99.90
28438;DHT22;15667;52.376;9.708;2022-10-26T07:51:39;11.70;99.90
28438;DHT22;15667;52.376;9.708;2022-10-26T07:54:04;11.70;99.90
28438;DHT22;15667;52.376;9.708;2022-10-26T07:56:30;11.70;99.90
28438;DHT22;15667;52.376;9.708;2022-10-26T07:58:56;11.70;99.90
28438;DHT22;15667;52.376;9.708;2022-10-26T08:01:22;11.60;99.90
28438;DHT22;15667;52.376;9.708;2022-10-26T08:03:51;11.70;99.90
28438;DHT22;15667;52.376;9.708;2022-10-26T08:06:18;11.80;99.90
28438;DHT22;15667;52.376;9.708;2022-10-26T08:08:43;11.80;99.90
28438;DHT22;15667;52.376;9.708;2022-10-26T08:11:11;12.00;99.90
28438;DHT22;15667;52.376;9.708;2022-10-26T08:13:37;11.90;99.90
28438;DHT22;15667;52.376;9.708;2022-10-26T08:16:04;11.90;99.90
28438;DHT22;15667;52.376;9.708;2022-10-26T08:18:30;12.00;99.90
28438;DHT22;15667;52.376;9.708;2022-10-26T08:21:09;12.00;99.90
28438;DHT22;15667;52.376;9.708;2022-10-26T08:23:36;12.00;99.90
28438;DHT22;15667;52.376;9.708;2022-10-26T08:26:03;12.10;99.90
28438;DHT22;15667;52.376;9.708;2022-10-26T08:28:29;12.00;99.90
28438;DHT22;15667;52.376;9.708;2022-10-26T08:30:55;12.10;99.90
28438;DHT22;15667;52.376;9.708;2022-10-26T08:33:21;12.20;99.90
28438;DHT22;15667;52.376;9.708;2022-10-26T08:35:48;12.20;99.90
28438;DHT22;15667;52.376;9.708;2022-10-26T08:38:14;12.30;99.90
28438;DHT22;15667;52.376;9.708;2022-10-26T08:40:41;12.20;99.90
28438;DHT22;15667;52.376;9.708;2022-10-26T08:43:30;12.20;99.90
28438;DHT22;15667;52.376;9.708;2022-10-26T08:46:15;12.30;99.90
28438;DHT22;15667;52.376;9.708;2022-10-26T08:48:54;12.30;99.90
28438;DHT22;15667;52.376;9.708;2022-10-26T08:51:35;12.40;99.90
28438;DHT22;15667;52.376;9.708;2022-10-26T08:54:21;12.50;99.90
28438;DHT22;15667;52.376;9.708;2022-10-26T08:56:56;12.50;99.90
28438;DHT22;15667;52.376;9.708;2022-10-26T09:02:00;12.70;99.90
28438;DHT22;15667;52.376;9.708;2022-10-26T09:04:28;12.70;99.90
28438;DHT22;15667;52.376;9.708;2022-10-26T09:12:46;13.00;99.90
28438;DHT22;15667;52.376;9.708;2022-10-26T09:15:39;13.10;99.90
28438;DHT22;15667;52.376;9.708;2022-10-26T09:20:48;13.50;99.90
28438;DHT22;15667;52.376;9.708;2022-10-26T09:25:46;14.20;99.90
28438;DHT22;15667;52.376;9.708;2022-10-26T09:28:16;14.60;99.90
28438;DHT22;15667;52.376;9.708;2022-10-26T09:30:43;15.20;99.90
28438;DHT22;15667;52.376;9.708;2022-10-26T09:33:14;15.50;99.90
28438;DHT22;15667;52.376;9.708;2022-10-26T09:43:38;15.20;99.90
28438;DHT22;15667;52.376;9.708;2022-10-26T09:46:12;15.00;99.90
28438;DHT22;15667;52.376;9.708;2022-10-26T09:48:45;15.00;99.90
28438;DHT22;15667;52.376;9.708;2022-10-26T09:51:16;14.90;99.90
28438;DHT22;15667;52.376;9.708;2022-10-26T09:53:41;14.80;99.90
28438;DHT22;15667;52.376;9.708;2022-10-26T09:56:12;14.80;99.90
28438;DHT22;15667;52.376;9.708;2022-10-26T09:58:50;14.80;99.90
28438;DHT22;15667;52.376;9.708;2022-10-26T10:06:45;15.00;99.90
28438;DHT22;15667;52.376;9.708;2022-10-26T10:11:47;15.10;99.90
28438;DHT22;15667;52.376;9.708;2022-10-26T10:14:23;15.20;99.90
28438;DHT22;15667;52.376;9.708;2022-10-26T10:16:52;15.20;99.90
28438;DHT22;15667;52.376;9.708;2022-10-26T10:19:22;15.10;99.90
28438;DHT22;15667;52.376;9.708;2022-10-26T10:21:49;15.20;99.90
28438;DHT22;15667;52.376;9.708;2022-10-26T10:29:42;15.30;99.90
28438;DHT22;15667;52.376;9.708;2022-10-26T10:32:18;15.30;99.90
28438;DHT22;15667;52.376;9.708;2022-10-26T10:34:46;15.50;99.90
28438;DHT22;15667;52.376;9.708;2022-10-26T10:39:43;15.70;99.90
28438;DHT22;15667;52.376;9.708;2022-10-26T10:42:31;15.60;99.90
28438;DHT22;15667;52.376;9.708;2022-10-26T10:44:55;15.70;99.90
28438;DHT22;15667;52.376;9.708;2022-10-26T10:47:25;15.80;99.90
28438;DHT22;15667;52.376;9.708;2022-10-26T10:49:59;15.90;99.90
28438;DHT22;15667;52.376;9.708;2022-10-26T10:52:29;16.00;99.90
28438;DHT22;15667;52.376;9.708;2022-10-26T10:55:02;15.90;99.90
28438;DHT22;15667;52.376;9.708;2022-10-26T10:57:38;15.90;99.90
28438;DHT22;15667;52.376;9.708;2022-10-26T11:00:10;15.90;99.90
28438;DHT22;15667;52.376;9.708;2022-10-26T11:08:08;16.00;99.90
28438;DHT22;15667;52.376;9.708;2022-10-26T11:10:37;16.10;99.90
28438;DHT22;15667;52.376;9.708;2022-10-26T11:13:17;16.20;99.90
28438;DHT22;15667;52.376;9.708;2022-10-26T11:15:44;16.30;99.90
28438;DHT22;15667;52.376;9.708;2022-10-26T11:18:16;16.20;99.90
28438;DHT22;15667;52.376;9.708;2022-10-26T11:20:50;16.10;99.90
28438;DHT22;15667;52.376;9.708;2022-10-26T11:23:27;16.00;99.90
28438;DHT22;15667;52.376;9.708;2022-10-26T11:25:58;16.00;99.90
28438;DHT22;15667;52.376;9.708;2022-10-26T11:28:30;16.10;99.90
28438;DHT22;15667;52.376;9.708;2022-10-26T11:30:59;16.20;99.90
28438;DHT22;15667;52.376;9.708;2022-10-26T11:33:27;16.30;99.90
28438;DHT22;15667;52.376;9.708;2022-10-26T11:35:58;16.50;99.90
28438;DHT22;15667;52.376;9.708;2022-10-26T11:38:44;16.60;99.90
28438;DHT22;15667;52.376;9.708;2022-10-26T11:43:44;16.70;99.90
28438;DHT22;15667;52.376;9.708;2022-10-26T11:46:11;16.90;99.90
28438;DHT22;15667;52.376;9.708;2022-10-26T11:53:56;17.20;99.90
28438;DHT22;15667;52.376;9.708;2022-10-26T11:56:30;17.40;99.90
28438;DHT22;15667;52.376;9.708;2022-10-26T11:58:56;17.20;99.90
28438;DHT22;15667;52.376;9.708;2022-10-26T12:01:23;17.20;99.90
28438;DHT22;15667;52.376;9.708;2022-10-26T12:03:50;17.20;99.90
28438;DHT22;15667;52.376;9.708;2022-10-26T12:06:21;17.20;99.90
28438;DHT22;15667;52.376;9.708;2022-10-26T12:08:55;17.20;99.90
28438;DHT22;15667;52.376;9.708;2022-10-26T12:11:35;17.30;99.90
28438;DHT22;15667;52.376;9.708;2022-10-26T12:16:49;17.60;99.90
28438;DHT22;15667;52.376;9.708;2022-10-26T12:19:24;17.70;99.90
28438;DHT22;15667;52.376;9.708;2022-10-26T12:21:51;17.80;99.90
28438;DHT22;15667;52.376;9.708;2022-10-26T12:26:52;18.00;99.90
28438;DHT22;15667;52.376;9.708;2022-10-26T12:29:31;18.10;99.90
28438;DHT22;15667;52.376;9.708;2022-10-26T12:31:59;18.20;99.90
28438;DHT22;15667;52.376;9.708;2022-10-26T12:37:35;18.50;99.90
28438;DHT22;15667;52.376;9.708;2022-10-26T12:42:55;18.70;99.90
28438;DHT22;15667;52.376;9.708;2022-10-26T12:45:22;18.60;99.90
28438;DHT22;15667;52.376;9.708;2022-10-26T12:52:48;18.30;99.90
28438;DHT22;15667;52.376;9.708;2022-10-26T12:58:08;18.30;99.90
28438;DHT22;15667;52.376;9.708;2022-10-26T13:00:44;18.30;99.90
28438;DHT22;15667;52.376;9.708;2022-10-26T13:08:55;18.30;99.90
28438;DHT22;15667;52.376;9.708;2022-10-26T13:11:35;18.40;99.90
28438;DHT22;15667;52.376;9.708;2022-10-26T13:17:30;18.70;99.90
28438;DHT22;15667;52.376;9.708;2022-10-26T13:20:18;18.90;99.90
28438;DHT22;15667;52.376;9.708;2022-10-26T13:22:45;19.50;99.90
28438;DHT22;15667;52.376;9.708;2022-10-26T13:25:24;19.70;99.90
28438;DHT22;15667;52.376;9.708;2022-10-26T13:28:02;20.10;99.90
28438;DHT22;15667;52.376;9.708;2022-10-26T13:30:35;20.90;99.90
28438;DHT22;15667;52.376;9.708;2022-10-26T13:33:07;21.10;99.90
28438;DHT22;15667;52.376;9.708;2022-10-26T13:35:35;20.60;99.90
28438;DHT22;15667;52.376;9.708;2022-10-26T13:38:05;20.10;99.90
28438;DHT22;15667;52.376;9.708;2022-10-26T13:40:32;19.70;99.90
28438;DHT22;15667;52.376;9.708;2022-10-26T13:43:05;19.70;99.90
28438;DHT22;15667;52.376;9.708;2022-10-26T13:45:33;19.50;99.90
28438;DHT22;15667;52.376;9.708;2022-10-26T13:48:03;19.50;99.90
28438;DHT22;15667;52.376;9.708;2022-10-26T13:50:35;19.50;99.90
28438;DHT22;15667;52.376;9.708;2022-10-26T13:53:06;19.50;99.90
28438;DHT22;15667;52.376;9.708;2022-10-26T13:55:36;19.50;99.90
28438;DHT22;15667;52.376;9.708;2022-10-26T14:00:35;19.20;99.90
28438;DHT22;15667;52.376;9.708;2022-10-26T14:03:11;19.00;99.90
28438;DHT22;15667;52.376;9.708;2022-10-26T14:05:39;19.00;99.90
28438;DHT22;15667;52.376;9.708;2022-10-26T14:08:05;19.00;99.90
28438;DHT22;15667;52.376;9.708;2022-10-26T14:12:56;18.90;99.90
28438;DHT22;15667;52.376;9.708;2022-10-26T14:15:23;18.70;99.90
28438;DHT22;15667;52.376;9.708;2022-10-26T14:17:50;18.70;99.90
28438;DHT22;15667;52.376;9.708;2022-10-26T14:20:17;18.80;99.90
28438;DHT22;15667;52.376;9.708;2022-10-26T14:22:43;18.70;99.90
28438;DHT22;15667;52.376;9.708;2022-10-26T14:28:19;18.50;99.90
28438;DHT22;15667;52.376;9.708;2022-10-26T14:30:44;18.40;99.90
28438;DHT22;15667;52.376;9.708;2022-10-26T14:33:17;18.30;99.90
28438;DHT22;15667;52.376;9.708;2022-10-26T14:35:43;18.20;99.90
28438;DHT22;15667;52.376;9.708;2022-10-26T14:38:13;18.10;99.90
28438;DHT22;15667;52.376;9.708;2022-10-26T14:40:41;18.00;99.90
28438;DHT22;15667;52.376;9.708;2022-10-26T14:43:06;18.00;99.90
28438;DHT22;15667;52.376;9.708;2022-10-26T14:45:36;17.90;99.90
28438;DHT22;15667;52.376;9.708;2022-10-26T14:48:04;17.80;99.90
28438;DHT22;15667;52.376;9.708;2022-10-26T14:50:30;17.80;99.90
28438;DHT22;15667;52.376;9.708;2022-10-26T14:53:17;17.80;99.90
28438;DHT22;15667;52.376;9.708;2022-10-26T14:55:42;17.80;99.90
28438;DHT22;15667;52.376;9.708;2022-10-26T14:58:17;17.70;99.90
28438;DHT22;15667;52.376;9.708;2022-10-26T15:00:44;17.60;99.90
28438;DHT22;15667;52.376;9.708;2022-10-26T15:03:15;17.60;99.90
28438;DHT22;15667;52.376;9.708;2022-10-26T15:05:44;17.60;99.90
28438;DHT22;15667;52.376;9.708;2022-10-26T15:10:54;17.90;99.90
28438;DHT22;15667;52.376;9.708;2022-10-26T15:13:29;17.40;99.90
28438;DHT22;15667;52.376;9.708;2022-10-26T15:16:15;17.40;99.90
28438;DHT22;15667;52.376;9.708;2022-10-26T15:19:26;17.40;99.90
28438;DHT22;15667;52.376;9.708;2022-10-26T15:21:34;17.30;99.90
28438;DHT22;15667;52.376;9.708;2022-10-26T15:24:25;17.20;99.90
28438;DHT22;15667;52.376;9.708;2022-10-26T15:26:51;17.20;99.90
28438;DHT22;15667;52.376;9.708;2022-10-26T15:32:02;17.10;99.90
28438;DHT22;15667;52.376;9.708;2022-10-26T15:34:29;17.00;99.90
28438;DHT22;15667;52.376;9.708;2022-10-26T15:36:54;17.20;99.90
28438;DHT22;15667;52.376;9.708;2022-10-26T15:39:20;17.00;99.90
28438;DHT22;15667;52.376;9.708;2022-10-26T15:41:46;17.00;99.90
28438;DHT22;15667;52.376;9.708;2022-10-26T15:44:13;16.90;99.90
28438;DHT22;15667;52.376;9.708;2022-10-26T15:46:41;16.80;99.90
28438;DHT22;15667;52.376;9.708;2022-10-26T15:49:13;16.80;99.90
28438;DHT22;15667;52.376;9.708;2022-10-26T15:51:38;16.70;99.90
28438;DHT22;15667;52.376;9.708;2022-10-26T15:54:04;16.60;99.90
28438;DHT22;15667;52.376;9.708;2022-10-26T15:56:30;16.60;99.90
28438;DHT22;15667;52.376;9.708;2022-10-26T15:58:56;16.20;99.90
28438;DHT22;15667;52.376;9.708;2022-10-26T16:01:23;16.40;99.90
28438;DHT22;15667;52.376;9.708;2022-10-26T16:03:49;16.40;99.90
28438;DHT22;15667;52.376;9.708;2022-10-26T16:06:16;16.40;99.90
28438;DHT22;15667;52.376;9.708;2022-10-26T16:08:46;16.40;99.90
28438;DHT22;15667;52.376;9.708;2022-10-26T16:11:13;16.30;99.90
28438;DHT22;15667;52.376;9.708;2022-10-26T16:13:39;16.20;99.90
28438;DHT22;15667;52.376;9.708;2022-10-26T16:16:08;16.10;99.90
28438;DHT22;15667;52.376;9.708;2022-10-26T16:18:34;16.10;99.90
28438;DHT22;15667;52.376;9.708;2022-10-26T16:21:00;16.00;99.90
28438;DHT22;15667;52.376;9.708;2022-10-26T16:23:25;16.00;99.90
28438;DHT22;15667;52.376;9.708;2022-10-26T16:25:51;16.00;99.90
28438;DHT22;15667;52.376;9.708;2022-10-26T16:28:16;16.00;99.90
28438;DHT22;15667;52.376;9.708;2022-10-26T16:30:45;15.90;99.90
28438;DHT22;15667;52.376;9.708;2022-10-26T16:33:10;15.70;99.90
28438;DHT22;15667;52.376;9.708;2022-10-26T16:35:36;15.80;99.90
28438;DHT22;15667;52.376;9.708;2022-10-26T16:38:02;15.70;99.90
28438;DHT22;15667;52.376;9.708;2022-10-26T16:40:27;15.70;99.90
28438;DHT22;15667;52.376;9.708;2022-10-26T16:42:53;15.90;99.90
28438;DHT22;15667;52.376;9.708;2022-10-26T16:45:18;15.60;99.90
28438;DHT22;15667;52.376;9.708;2022-10-26T16:47:47;15.60;99.90
28438;DHT22;15667;52.376;9.708;2022-10-26T16:50:12;15.50;99.90
28438;DHT22;15667;52.376;9.708;2022-10-26T16:52:39;15.60;99.90
28438;DHT22;15667;52.376;9.708;2022-10-26T16:55:05;15.50;99.90
28438;DHT22;15667;52.376;9.708;2022-10-26T16:57:30;15.50;99.90
28438;DHT22;15667;52.376;9.708;2022-10-26T16:59:56;15.50;99.90
28438;DHT22;15667;52.376;9.708;2022-10-26T17:02:25;15.40;99.90
28438;DHT22;15667;52.376;9.708;2022-10-26T17:04:50;15.40;99.90
28438;DHT22;15667;52.376;9.708;2022-10-26T17:07:16;15.40;99.90
28438;DHT22;15667;52.376;9.708;2022-10-26T17:09:41;15.40;99.90
28438;DHT22;15667;52.376;9.708;2022-10-26T17:12:07;15.30;99.90
28438;DHT22;15667;52.376;9.708;2022-10-26T17:14:35;15.30;99.90
28438;DHT22;15667;52.376;9.708;2022-10-26T17:17:01;15.20;99.90
28438;DHT22;15667;52.376;9.708;2022-10-26T17:19:26;15.20;99.90
28438;DHT22;15667;52.376;9.708;2022-10-26T17:21:52;15.20;99.90
28438;DHT22;15667;52.376;9.708;2022-10-26T17:24:17;15.20;99.90
28438;DHT22;15667;52.376;9.708;2022-10-26T17:26:43;15.20;99.90
28438;DHT22;15667;52.376;9.708;2022-10-26T17:29:10;15.10;99.90
28438;DHT22;15667;52.376;9.708;2022-10-26T17:31:36;15.10;99.90
28438;DHT22;15667;52.376;9.708;2022-10-26T17:34:01;14.70;99.90
28438;DHT22;15667;52.376;9.708;2022-10-26T17:36:27;15.10;99.90
28438;DHT22;15667;52.376;9.708;2022-10-26T17:38:53;15.10;99.90
28438;DHT22;15667;52.376;9.708;2022-10-26T17:41:20;15.00;99.90
28438;DHT22;15667;52.376;9.708;2022-10-26T17:43:58;15.30;99.90
28438;DHT22;15667;52.376;9.708;2022-10-26T17:46:25;15.00;99.90
28438;DHT22;15667;52.376;9.708;2022-10-26T17:48:57;14.90;99.90
28438;DHT22;15667;52.376;9.708;2022-10-26T17:51:24;14.20;99.90
28438;DHT22;15667;52.376;9.708;2022-10-26T17:53:53;15.40;99.90
28438;DHT22;15667;52.376;9.708;2022-10-26T17:56:26;15.00;99.90
28438;DHT22;15667;52.376;9.708;2022-10-26T17:59:07;14.90;99.90
28438;DHT22;15667;52.376;9.708;2022-10-26T18:01:33;14.40;99.90
28438;DHT22;15667;52.376;9.708;2022-10-26T18:03:59;14.90;99.90